Terminal Aerodrome Forecast
Issued by NWS

Home | Current Version | Previous Version | Text Only | Print | Product List | Glossary On
Versions: 1 2 3 4 5 6 7 8 9 10 11 12 13 14 15 16 17 18 19 20 21
000
FTUS43 KAPX 012300
TAFMBL
TAF
KMBL 012320Z 0200/0224 15004KT P6SM SCT002 BKN200
     FM020800 15004KT 3SM -SHRA BR SCT012 OVC025
     FM021400 14006KT 4SM -SHRA BR OVC015
      AMD LTD TO CLD VIS AND WIND=

USA.gov is the U.S. government's official web portal to all federal, state and local government web resources and services.